Time;durP1;ratioP1;P1;durP2;ratioP2;P2;SDS_P1;SDS_P2;PMS_P1;PMS_P2;Temp;Humidity;BMP_temperature;BMP_pressure;BME280_temperature;BME280_humidity;BME280_pressure;Samples;Min_cycle;Max_cycle;Signal;HPM_P1;HPM_P2
2021/01/30 00:00:10;;;;;;;;;;;5.90;99.90;;;;;;5074271;28;20357;-76
2021/01/30 00:02:36;;;;;;;;;;;5.90;99.90;;;;;;5090404;28;19908;-76
2021/01/30 00:05:01;;;;;;;;;;;5.90;99.90;;;;;;5090289;28;20426;-76
2021/01/30 00:07:27;;;;;;;;;;;5.90;99.90;;;;;;5090336;28;20007;-76
2021/01/30 00:09:52;;;;;;;;;;;5.90;99.90;;;;;;5073503;28;19999;-76
2021/01/30 00:12:18;;;;;;;;;;;5.90;99.90;;;;;;5070868;28;19921;-76
2021/01/30 00:14:44;;;;;;;;;;;5.80;99.90;;;;;;5079602;28;19952;-76
2021/01/30 00:17:09;;;;;;;;;;;5.80;99.90;;;;;;5072040;28;19908;-76
2021/01/30 00:19:36;;;;;;;;;;;5.80;99.90;;;;;;5070830;28;19948;-76
2021/01/30 00:22:11;;;;;;;;;;;5.80;99.90;;;;;;5070887;28;20285;-76
2021/01/30 00:24:42;;;;;;;;;;;5.80;99.90;;;;;;5073992;28;19919;-76
2021/01/30 00:27:09;;;;;;;;;;;5.80;99.90;;;;;;5074350;28;19912;-76
2021/01/30 00:29:34;;;;;;;;;;;5.80;99.90;;;;;;5074344;28;19957;-76
2021/01/30 00:32:00;;;;;;;;;;;5.80;99.90;;;;;;5074213;28;19924;-76
2021/01/30 00:34:27;;;;;;;;;;;5.80;99.90;;;;;;5074502;28;20381;-76
2021/01/30 00:36:53;;;;;;;;;;;5.80;99.90;;;;;;5072805;28;19909;-76
2021/01/30 00:39:19;;;;;;;;;;;5.80;99.90;;;;;;5074345;28;19919;-76
2021/01/30 00:41:45;;;;;;;;;;;5.80;99.90;;;;;;5074337;28;19908;-76
2021/01/30 00:44:11;;;;;;;;;;;5.80;99.90;;;;;;5087086;28;20445;-76
2021/01/30 00:46:37;;;;;;;;;;;5.80;99.90;;;;;;5086233;28;19918;-76
2021/01/30 00:49:03;;;;;;;;;;;5.80;99.90;;;;;;5074108;28;19909;-76
2021/01/30 00:51:28;;;;;;;;;;;5.80;99.90;;;;;;5074101;28;19923;-76
2021/01/30 00:53:54;;;;;;;;;;;5.80;99.90;;;;;;5074109;28;19908;-76
2021/01/30 00:56:19;;;;;;;;;;;5.80;99.90;;;;;;5073766;28;20357;-76
2021/01/30 00:58:45;;;;;;;;;;;5.80;99.90;;;;;;5073915;28;20003;-76
2021/01/30 01:01:11;;;;;;;;;;;5.80;99.90;;;;;;5073902;28;19993;-76
2021/01/30 01:03:36;;;;;;;;;;;5.80;99.90;;;;;;5074014;28;20361;-76
2021/01/30 01:06:02;;;;;;;;;;;5.70;99.90;;;;;;5080174;28;19966;-76
2021/01/30 01:08:28;;;;;;;;;;;5.70;99.90;;;;;;5073859;28;19913;-76
2021/01/30 01:10:54;;;;;;;;;;;5.70;99.90;;;;;;5074091;28;19919;-76
2021/01/30 01:13:19;;;;;;;;;;;5.70;99.90;;;;;;5079231;28;20014;-76
2021/01/30 01:15:45;;;;;;;;;;;5.60;99.90;;;;;;5078398;28;19912;-76
2021/01/30 01:18:11;;;;;;;;;;;5.60;99.90;;;;;;5073285;28;19908;-76
2021/01/30 01:20:36;;;;;;;;;;;5.50;99.90;;;;;;5073641;28;20385;-76
2021/01/30 01:23:01;;;;;;;;;;;5.50;99.90;;;;;;5073634;28;19995;-76
2021/01/30 01:25:27;;;;;;;;;;;5.50;99.90;;;;;;5073487;28;20396;-76
2021/01/30 01:27:52;;;;;;;;;;;5.50;99.90;;;;;;5076097;28;19915;-76
2021/01/30 01:30:19;;;;;;;;;;;5.50;99.90;;;;;;5092490;28;19916;-76
2021/01/30 01:32:44;;;;;;;;;;;5.50;99.90;;;;;;5092792;28;19916;-76
2021/01/30 01:35:13;;;;;;;;;;;5.50;99.90;;;;;;5092450;28;19950;-76
2021/01/30 01:37:39;;;;;;;;;;;5.50;99.90;;;;;;5092323;28;20331;-76
2021/01/30 01:40:04;;;;;;;;;;;5.50;99.90;;;;;;5090955;28;19916;-76
2021/01/30 01:42:30;;;;;;;;;;;5.50;99.90;;;;;;5090021;28;20302;-76
2021/01/30 01:44:56;;;;;;;;;;;5.50;99.90;;;;;;5079802;28;19909;-76
2021/01/30 01:47:21;;;;;;;;;;;5.50;99.90;;;;;;5072495;28;20431;-76
2021/01/30 01:49:47;;;;;;;;;;;5.50;99.90;;;;;;5073102;28;19944;-76
2021/01/30 01:52:20;;;;;;;;;;;5.50;99.90;;;;;;5071623;28;19913;-75
2021/01/30 01:54:48;;;;;;;;;;;5.50;99.90;;;;;;5073166;28;20003;-76
2021/01/30 01:57:14;;;;;;;;;;;5.60;99.90;;;;;;5072586;28;20387;-76
2021/01/30 01:59:50;;;;;;;;;;;5.60;99.90;;;;;;5073841;28;19908;-76
2021/01/30 02:02:16;;;;;;;;;;;5.50;99.90;;;;;;5074114;28;20361;-76
2021/01/30 02:04:54;;;;;;;;;;;5.50;99.90;;;;;;5071519;28;19948;-76
2021/01/30 02:07:20;;;;;;;;;;;5.50;99.90;;;;;;5072398;28;19959;-76
2021/01/30 02:09:46;;;;;;;;;;;5.50;99.90;;;;;;5072469;28;19908;-76
2021/01/30 02:12:13;;;;;;;;;;;5.50;99.90;;;;;;5073818;28;20145;-76
2021/01/30 02:14:40;;;;;;;;;;;5.50;99.90;;;;;;5088334;28;19956;-76
2021/01/30 02:17:13;;;;;;;;;;;5.50;99.90;;;;;;5075502;28;19908;-76
2021/01/30 02:19:57;;;;;;;;;;;5.50;99.90;;;;;;5071405;28;19912;-76
2021/01/30 02:22:41;;;;;;;;;;;5.40;99.90;;;;;;5086857;28;19908;-75
2021/01/30 02:25:25;;;;;;;;;;;5.40;99.90;;;;;;5091828;28;19908;-76
2021/01/30 02:27:59;;;;;;;;;;;5.40;99.90;;;;;;5079115;28;19960;-76
2021/01/30 02:30:37;;;;;;;;;;;5.30;99.90;;;;;;5070916;28;20024;-76
2021/01/30 02:33:09;;;;;;;;;;;5.20;99.90;;;;;;5071356;28;20264;-76
2021/01/30 02:35:34;;;;;;;;;;;5.10;99.90;;;;;;5072167;28;20003;-76
2021/01/30 02:38:12;;;;;;;;;;;5.10;99.90;;;;;;5072189;28;19999;-76
2021/01/30 02:40:40;;;;;;;;;;;5.00;99.90;;;;;;5071280;28;20353;-76
2021/01/30 02:43:10;;;;;;;;;;;4.90;99.90;;;;;;5072009;28;19909;-76
2021/01/30 02:45:43;;;;;;;;;;;4.90;99.90;;;;;;5077053;28;19908;-76
2021/01/30 02:48:30;;;;;;;;;;;4.90;99.90;;;;;;5078099;28;19939;-76
2021/01/30 02:50:58;;;;;;;;;;;4.90;99.90;;;;;;5084339;28;20360;-76
2021/01/30 02:53:27;;;;;;;;;;;4.80;99.90;;;;;;5089971;28;20406;-76
2021/01/30 02:55:58;;;;;;;;;;;4.80;99.90;;;;;;5089849;28;20536;-76
2021/01/30 02:58:26;;;;;;;;;;;4.80;99.90;;;;;;5091257;28;19955;-76
2021/01/30 03:00:56;;;;;;;;;;;4.80;99.90;;;;;;5089999;28;19912;-76
2021/01/30 03:03:21;;;;;;;;;;;4.80;99.90;;;;;;5091202;28;19961;-76
2021/01/30 03:05:47;;;;;;;;;;;4.80;99.90;;;;;;5089614;28;20315;-76
2021/01/30 03:08:15;;;;;;;;;;;4.80;99.90;;;;;;5091040;28;19908;-76
2021/01/30 03:10:47;;;;;;;;;;;4.80;99.90;;;;;;5091013;28;19909;-76
2021/01/30 03:13:26;;;;;;;;;;;4.80;99.90;;;;;;5091000;28;19908;-76
2021/01/30 03:15:51;;;;;;;;;;;4.80;99.90;;;;;;5088777;28;20007;-76
2021/01/30 03:18:18;;;;;;;;;;;4.90;99.90;;;;;;5086901;28;20383;-76
2021/01/30 03:20:44;;;;;;;;;;;5.00;99.90;;;;;;5090745;28;19931;-76
2021/01/30 03:23:11;;;;;;;;;;;5.00;99.90;;;;;;5090933;28;19961;-76
2021/01/30 03:25:37;;;;;;;;;;;5.00;99.90;;;;;;5090658;28;19908;-76
2021/01/30 03:28:02;;;;;;;;;;;5.00;99.90;;;;;;5089465;28;19915;-76
2021/01/30 03:30:29;;;;;;;;;;;5.10;99.90;;;;;;5090644;28;20293;-76
2021/01/30 03:32:54;;;;;;;;;;;5.10;99.90;;;;;;5090782;28;19970;-76
2021/01/30 03:35:20;;;;;;;;;;;5.10;99.90;;;;;;5090748;28;19908;-76
2021/01/30 03:37:46;;;;;;;;;;;5.10;99.90;;;;;;5090499;28;20008;-76
2021/01/30 03:40:12;;;;;;;;;;;5.10;99.90;;;;;;5090767;28;19948;-76
2021/01/30 03:42:38;;;;;;;;;;;5.20;99.90;;;;;;5090723;28;19915;-76
2021/01/30 03:45:09;;;;;;;;;;;5.20;99.90;;;;;;5088922;28;19974;-76
2021/01/30 03:47:34;;;;;;;;;;;5.20;99.90;;;;;;5073169;28;19940;-75
2021/01/30 03:50:00;;;;;;;;;;;5.20;99.90;;;;;;5069889;28;19909;-76
2021/01/30 03:52:25;;;;;;;;;;;5.20;99.90;;;;;;5071260;28;19912;-76
2021/01/30 03:54:51;;;;;;;;;;;5.20;99.90;;;;;;5071298;28;19909;-76
2021/01/30 03:57:16;;;;;;;;;;;5.20;99.90;;;;;;5070956;28;19909;-76
2021/01/30 03:59:42;;;;;;;;;;;5.20;99.90;;;;;;5073401;28;19908;-76
2021/01/30 04:02:07;;;;;;;;;;;5.30;99.90;;;;;;5073815;28;19921;-76
2021/01/30 04:04:34;;;;;;;;;;;5.30;99.90;;;;;;5074872;28;19908;-76
2021/01/30 04:06:59;;;;;;;;;;;5.30;99.90;;;;;;5073366;28;20357;-76
2021/01/30 04:09:25;;;;;;;;;;;5.30;99.90;;;;;;5074634;28;19954;-76
2021/01/30 04:11:50;;;;;;;;;;;5.30;99.90;;;;;;5074694;28;19913;-76
2021/01/30 04:14:16;;;;;;;;;;;5.30;99.90;;;;;;5077783;28;19940;-76
2021/01/30 04:16:42;;;;;;;;;;;5.30;99.90;;;;;;5084452;28;19953;-76
2021/01/30 04:19:07;;;;;;;;;;;5.30;99.90;;;;;;5079698;28;19913;-76
2021/01/30 04:21:33;;;;;;;;;;;5.30;99.90;;;;;;5092875;28;19914;-76
2021/01/30 04:23:58;;;;;;;;;;;5.30;99.90;;;;;;5092865;28;20290;-75
2021/01/30 04:26:24;;;;;;;;;;;5.30;99.90;;;;;;5092492;28;19930;-76
2021/01/30 04:28:50;;;;;;;;;;;5.30;99.90;;;;;;5094409;28;19948;-76
2021/01/30 04:31:16;;;;;;;;;;;5.30;99.90;;;;;;5093918;28;20292;-76
2021/01/30 04:33:41;;;;;;;;;;;5.30;99.90;;;;;;5093919;28;19912;-76
2021/01/30 04:36:07;;;;;;;;;;;5.30;99.90;;;;;;5093628;28;20324;-76
2021/01/30 04:38:33;;;;;;;;;;;5.30;99.90;;;;;;5093849;28;19908;-76
2021/01/30 04:41:17;;;;;;;;;;;5.30;99.90;;;;;;5093886;28;19912;-76
2021/01/30 04:43:44;;;;;;;;;;;5.30;99.90;;;;;;5092177;28;20041;-76
2021/01/30 04:46:14;;;;;;;;;;;5.30;99.90;;;;;;5083195;28;20053;-76
2021/01/30 04:48:54;;;;;;;;;;;5.30;99.90;;;;;;5074135;28;20361;-76
2021/01/30 04:51:29;;;;;;;;;;;5.30;99.90;;;;;;5088744;28;19912;-76
2021/01/30 04:54:03;;;;;;;;;;;5.30;99.90;;;;;;5093673;28;20153;-76
2021/01/30 04:56:41;;;;;;;;;;;5.30;99.90;;;;;;5091806;28;20270;-76
2021/01/30 04:59:25;;;;;;;;;;;5.30;99.90;;;;;;5092164;28;20292;-76
2021/01/30 05:01:58;;;;;;;;;;;5.30;99.90;;;;;;5078639;28;19909;-76
2021/01/30 05:04:43;;;;;;;;;;;5.30;99.90;;;;;;5074047;28;19908;-76
2021/01/30 05:07:14;;;;;;;;;;;5.20;99.90;;;;;;5072326;28;19932;-76
2021/01/30 05:09:45;;;;;;;;;;;5.20;99.90;;;;;;5071866;28;20022;-76
2021/01/30 05:12:11;;;;;;;;;;;5.20;99.90;;;;;;5073900;28;20013;-76
2021/01/30 05:14:39;;;;;;;;;;;5.20;99.90;;;;;;5076954;28;19966;-76
2021/01/30 05:17:14;;;;;;;;;;;5.20;99.90;;;;;;5081043;28;20305;-75
2021/01/30 05:19:42;;;;;;;;;;;5.10;99.90;;;;;;5073555;28;19966;-76
2021/01/30 05:22:11;;;;;;;;;;;5.10;99.90;;;;;;5073669;28;19909;-76
2021/01/30 05:24:36;;;;;;;;;;;5.10;99.90;;;;;;5073596;28;19908;-76
2021/01/30 05:27:13;;;;;;;;;;;5.10;99.90;;;;;;5073334;28;20037;-76
2021/01/30 05:29:44;;;;;;;;;;;5.10;99.90;;;;;;5086688;28;19920;-76
2021/01/30 05:32:19;;;;;;;;;;;5.10;99.90;;;;;;5092825;28;19919;-76
2021/01/30 05:34:49;;;;;;;;;;;5.10;99.90;;;;;;5091583;28;19912;-76
2021/01/30 05:37:17;;;;;;;;;;;5.10;99.90;;;;;;5092327;28;19915;-76
2021/01/30 05:39:51;;;;;;;;;;;5.10;99.90;;;;;;5092655;28;19944;-76
2021/01/30 05:42:32;;;;;;;;;;;5.00;99.90;;;;;;5091302;28;19915;-76
2021/01/30 05:45:22;;;;;;;;;;;5.00;99.90;;;;;;5086743;28;19952;-76
2021/01/30 05:47:50;;;;;;;;;;;5.00;99.90;;;;;;5077747;28;19936;-76
2021/01/30 05:50:18;;;;;;;;;;;5.00;99.90;;;;;;5073015;28;19915;-76
2021/01/30 05:52:44;;;;;;;;;;;5.00;99.90;;;;;;5072694;28;19913;-76
2021/01/30 05:55:25;;;;;;;;;;;5.00;99.90;;;;;;5073077;28;19916;-76
2021/01/30 05:57:50;;;;;;;;;;;5.10;99.90;;;;;;5072534;28;19931;-76
2021/01/30 06:00:17;;;;;;;;;;;5.10;99.90;;;;;;5072785;28;20369;-76
2021/01/30 06:02:58;;;;;;;;;;;5.00;99.90;;;;;;5071550;28;19952;-75
2021/01/30 06:05:23;;;;;;;;;;;5.00;99.90;;;;;;5072707;28;20524;-76
2021/01/30 06:07:49;;;;;;;;;;;5.10;99.90;;;;;;5072471;28;20003;-76
2021/01/30 06:10:25;;;;;;;;;;;5.10;99.90;;;;;;5072783;28;20328;-76
2021/01/30 06:13:02;;;;;;;;;;;5.00;99.90;;;;;;5071480;28;19919;-76
2021/01/30 06:15:33;;;;;;;;;;;5.00;99.90;;;;;;5081774;28;19948;-76
2021/01/30 06:18:00;;;;;;;;;;;5.00;99.90;;;;;;5071202;28;19913;-76
2021/01/30 06:20:29;;;;;;;;;;;5.00;99.90;;;;;;5071675;28;19912;-76
2021/01/30 06:23:06;;;;;;;;;;;5.00;99.90;;;;;;5072263;28;19909;-76
2021/01/30 06:25:34;;;;;;;;;;;5.10;99.90;;;;;;5071043;28;19948;-76
2021/01/30 06:28:05;;;;;;;;;;;5.00;99.90;;;;;;5072101;28;19909;-75
2021/01/30 06:30:33;;;;;;;;;;;5.00;99.90;;;;;;5072253;28;20266;-76
2021/01/30 06:33:00;;;;;;;;;;;5.00;99.90;;;;;;5071086;28;20015;-75
2021/01/30 06:35:30;;;;;;;;;;;5.00;99.90;;;;;;5072366;28;20229;-76
2021/01/30 06:38:03;;;;;;;;;;;5.00;99.90;;;;;;5071909;28;19913;-76
2021/01/30 06:40:31;;;;;;;;;;;5.10;99.90;;;;;;5072138;28;20007;-75
2021/01/30 06:43:05;;;;;;;;;;;5.00;99.90;;;;;;5070797;28;20061;-76
2021/01/30 06:45:32;;;;;;;;;;;5.00;99.90;;;;;;5085570;28;19908;-75
2021/01/30 06:47:58;;;;;;;;;;;5.10;99.90;;;;;;5075589;28;19916;-76
2021/01/30 06:50:31;;;;;;;;;;;5.10;99.90;;;;;;5071983;28;20035;-76
2021/01/30 06:53:17;;;;;;;;;;;5.10;99.90;;;;;;5072323;28;20404;-76
2021/01/30 06:55:42;;;;;;;;;;;5.10;99.90;;;;;;5086122;28;19908;-76
2021/01/30 06:58:11;;;;;;;;;;;5.10;99.90;;;;;;5091393;28;20003;-75
2021/01/30 07:00:36;;;;;;;;;;;5.10;99.90;;;;;;5091163;28;19908;-76
2021/01/30 07:03:02;;;;;;;;;;;5.10;99.90;;;;;;5091357;28;20392;-76
2021/01/30 07:05:34;;;;;;;;;;;5.10;99.90;;;;;;5089786;28;20290;-76
2021/01/30 07:07:59;;;;;;;;;;;5.10;99.90;;;;;;5091013;28;20357;-76
2021/01/30 07:10:48;;;;;;;;;;;5.10;99.90;;;;;;5091180;28;19915;-76
2021/01/30 07:13:37;;;;;;;;;;;5.20;99.90;;;;;;5052088;28;19923;-76
2021/01/30 07:16:08;;;;;;;;;;;5.10;99.90;;;;;;5075165;28;20015;-76
2021/01/30 07:18:39;;;;;;;;;;;5.20;99.90;;;;;;5076450;28;19909;-76
2021/01/30 07:21:04;;;;;;;;;;;5.10;99.90;;;;;;5071617;28;20293;-76
2021/01/30 07:24:02;;;;;;;;;;;5.20;99.90;;;;;;5071646;28;19909;-76
2021/01/30 07:26:36;;;;;;;;;;;5.20;99.90;;;;;;5046668;28;20365;-76
2021/01/30 07:29:05;;;;;;;;;;;5.20;99.90;;;;;;5086259;28;19913;-76
2021/01/30 07:31:32;;;;;;;;;;;5.20;99.90;;;;;;5070609;28;19916;-76
2021/01/30 07:34:00;;;;;;;;;;;5.20;99.90;;;;;;5074172;28;20059;-76
2021/01/30 07:36:30;;;;;;;;;;;5.30;99.90;;;;;;5077349;28;19917;-76
2021/01/30 07:38:56;;;;;;;;;;;5.30;99.90;;;;;;5082081;28;19907;-76
2021/01/30 07:41:36;;;;;;;;;;;5.30;99.90;;;;;;5075482;28;19919;-76
2021/01/30 07:44:08;;;;;;;;;;;5.40;99.90;;;;;;5071433;28;19909;-76
2021/01/30 07:46:37;;;;;;;;;;;5.40;99.90;;;;;;5070944;28;19931;-75
2021/01/30 07:49:08;;;;;;;;;;;5.40;99.90;;;;;;5071131;28;19912;-76
2021/01/30 07:51:46;;;;;;;;;;;5.40;99.90;;;;;;5070143;28;19912;-76
2021/01/30 07:54:13;;;;;;;;;;;5.40;99.90;;;;;;5074829;28;19908;-76
2021/01/30 07:56:41;;;;;;;;;;;5.50;99.90;;;;;;5070109;28;19992;-76
2021/01/30 07:59:09;;;;;;;;;;;5.50;99.90;;;;;;5070191;28;19943;-76
2021/01/30 08:01:53;;;;;;;;;;;5.60;99.90;;;;;;5070735;28;19962;-76
2021/01/30 08:04:29;;;;;;;;;;;5.60;99.90;;;;;;5084554;28;19961;-76
2021/01/30 08:07:27;;;;;;;;;;;5.60;99.90;;;;;;5088005;28;20274;-76
2021/01/30 08:09:53;;;;;;;;;;;5.70;99.90;;;;;;5044643;28;19915;-76
2021/01/30 08:12:21;;;;;;;;;;;5.70;99.90;;;;;;5076506;28;20280;-76
2021/01/30 08:14:58;;;;;;;;;;;5.80;99.90;;;;;;5076561;28;19908;-76
2021/01/30 08:17:43;;;;;;;;;;;5.80;99.90;;;;;;5083711;28;19935;-76
2021/01/30 08:20:18;;;;;;;;;;;5.90;99.90;;;;;;5076676;28;20369;-76
2021/01/30 08:22:44;;;;;;;;;;;6.00;99.90;;;;;;5080189;28;20435;-76
2021/01/30 08:25:14;;;;;;;;;;;6.00;99.90;;;;;;5077602;28;19908;-76
2021/01/30 08:27:44;;;;;;;;;;;6.00;99.90;;;;;;5073171;28;19909;-76
2021/01/30 08:30:09;;;;;;;;;;;6.00;99.90;;;;;;5073798;28;19952;-76
2021/01/30 08:32:37;;;;;;;;;;;6.00;99.90;;;;;;5078449;28;19944;-76
2021/01/30 08:35:29;;;;;;;;;;;6.00;99.90;;;;;;5075040;28;20361;-77
2021/01/30 08:37:59;;;;;;;;;;;6.10;99.90;;;;;;5050496;28;19909;-76
2021/01/30 08:40:43;;;;;;;;;;;6.10;99.90;;;;;;5073579;28;20350;-76
2021/01/30 08:43:13;;;;;;;;;;;6.00;99.90;;;;;;5081007;28;19922;-75
2021/01/30 08:45:39;;;;;;;;;;;6.10;99.90;;;;;;5084222;28;19912;-76
2021/01/30 08:48:08;;;;;;;;;;;6.10;99.90;;;;;;5083238;28;20391;-76
2021/01/30 08:50:41;;;;;;;;;;;6.10;99.90;;;;;;5081846;28;19908;-76
2021/01/30 08:53:11;;;;;;;;;;;6.10;99.90;;;;;;5080717;28;20326;-76
2021/01/30 08:55:43;;;;;;;;;;;6.10;99.90;;;;;;5081783;28;19908;-76
2021/01/30 08:58:28;;;;;;;;;;;6.10;99.90;;;;;;5083690;28;20419;-76
2021/01/30 09:00:55;;;;;;;;;;;6.20;99.90;;;;;;5079765;28;19912;-76
2021/01/30 09:03:41;;;;;;;;;;;6.20;99.90;;;;;;5073046;28;19936;-76
2021/01/30 09:06:08;;;;;;;;;;;6.30;99.90;;;;;;5074931;28;20184;-76
2021/01/30 09:08:34;;;;;;;;;;;6.30;99.90;;;;;;5072757;28;19908;-76
2021/01/30 09:11:22;;;;;;;;;;;6.40;99.90;;;;;;5072757;28;19952;-76
2021/01/30 09:14:03;;;;;;;;;;;6.40;99.90;;;;;;5083431;28;19909;-76
2021/01/30 09:16:33;;;;;;;;;;;6.40;99.90;;;;;;5073663;28;20445;-76
2021/01/30 09:19:00;;;;;;;;;;;6.50;99.90;;;;;;5072955;28;19913;-76
2021/01/30 09:21:49;;;;;;;;;;;6.50;99.90;;;;;;5072777;28;19928;-76
2021/01/30 09:24:37;;;;;;;;;;;6.50;99.90;;;;;;5072795;28;20269;-76
2021/01/30 09:27:06;;;;;;;;;;;6.60;99.90;;;;;;5047767;28;19916;-76
2021/01/30 09:29:37;;;;;;;;;;;6.70;99.90;;;;;;5079533;28;20288;-76
2021/01/30 09:32:03;;;;;;;;;;;6.70;99.90;;;;;;5092656;28;19923;-76
2021/01/30 09:34:33;;;;;;;;;;;6.70;99.90;;;;;;5080145;28;19917;-76
2021/01/30 09:36:59;;;;;;;;;;;6.70;99.90;;;;;;5072849;28;20015;-76
2021/01/30 09:39:26;;;;;;;;;;;6.70;99.90;;;;;;5073285;28;19952;-76
2021/01/30 09:42:05;;;;;;;;;;;6.70;99.90;;;;;;5074540;28;20323;-76
2021/01/30 09:44:30;;;;;;;;;;;6.80;99.90;;;;;;5077941;28;19908;-76
2021/01/30 09:46:57;;;;;;;;;;;6.80;99.90;;;;;;5076183;28;20361;-76
2021/01/30 09:49:31;;;;;;;;;;;6.80;99.90;;;;;;5071573;28;19915;-76
2021/01/30 09:51:57;;;;;;;;;;;6.90;99.90;;;;;;5073159;28;19919;-75
2021/01/30 09:54:25;;;;;;;;;;;6.90;99.90;;;;;;5073014;28;19909;-75
2021/01/30 09:56:53;;;;;;;;;;;6.80;99.90;;;;;;5072618;28;19952;-76
2021/01/30 09:59:22;;;;;;;;;;;6.90;99.90;;;;;;5072933;28;19952;-76
2021/01/30 10:01:47;;;;;;;;;;;6.90;99.90;;;;;;5073089;28;19958;-76
2021/01/30 10:04:19;;;;;;;;;;;6.90;99.90;;;;;;5071650;28;19955;-76
2021/01/30 10:06:46;;;;;;;;;;;6.90;99.90;;;;;;5071113;28;19944;-76
2021/01/30 10:09:22;;;;;;;;;;;6.80;99.90;;;;;;5072765;28;19916;-76
2021/01/30 10:11:50;;;;;;;;;;;6.80;99.90;;;;;;5072617;28;19919;-77
2021/01/30 10:14:19;;;;;;;;;;;6.70;99.90;;;;;;5082682;28;19909;-76
2021/01/30 10:16:54;;;;;;;;;;;6.70;99.90;;;;;;5073209;28;19912;-76
2021/01/30 10:19:23;;;;;;;;;;;6.70;99.90;;;;;;5085695;28;19908;-76
2021/01/30 10:21:49;;;;;;;;;;;6.80;99.90;;;;;;5090826;28;19908;-77
2021/01/30 10:24:19;;;;;;;;;;;6.80;99.90;;;;;;5090629;28;19908;-77
2021/01/30 10:26:45;;;;;;;;;;;6.90;99.90;;;;;;5091708;28;20293;-77
2021/01/30 10:29:12;;;;;;;;;;;6.90;99.90;;;;;;5091674;28;19909;-77
2021/01/30 10:31:43;;;;;;;;;;;7.00;99.90;;;;;;5090090;28;19916;-76
2021/01/30 10:34:20;;;;;;;;;;;7.00;99.90;;;;;;5090458;28;20369;-77
2021/01/30 10:36:49;;;;;;;;;;;7.10;99.90;;;;;;5087508;28;20361;-77
2021/01/30 10:39:15;;;;;;;;;;;7.10;99.90;;;;;;5087593;28;19915;-77
2021/01/30 10:41:41;;;;;;;;;;;7.10;99.90;;;;;;5088281;28;19995;-76
2021/01/30 10:44:09;;;;;;;;;;;7.10;99.90;;;;;;5083505;28;19918;-76
2021/01/30 10:46:40;;;;;;;;;;;7.10;99.90;;;;;;5088771;28;19916;-77
2021/01/30 10:49:26;;;;;;;;;;;7.20;99.90;;;;;;5091064;28;19912;-77
2021/01/30 10:52:12;;;;;;;;;;;7.20;99.90;;;;;;5090810;28;19986;-77
2021/01/30 10:54:39;;;;;;;;;;;7.20;99.90;;;;;;5091231;28;20284;-77
2021/01/30 10:57:16;;;;;;;;;;;7.30;99.90;;;;;;5089572;28;19916;-77
2021/01/30 11:00:02;;;;;;;;;;;7.30;99.90;;;;;;5090900;28;20380;-76
2021/01/30 11:02:47;;;;;;;;;;;7.30;99.90;;;;;;5091251;28;20347;-77
2021/01/30 11:05:19;;;;;;;;;;;7.30;99.90;;;;;;5089638;28;19909;-77
2021/01/30 11:07:49;;;;;;;;;;;7.40;99.90;;;;;;5089111;28;19932;-76
2021/01/30 11:10:20;;;;;;;;;;;7.50;99.90;;;;;;5091291;28;20404;-77
2021/01/30 11:12:46;;;;;;;;;;;7.50;99.90;;;;;;5080589;28;20422;-76
2021/01/30 11:15:13;;;;;;;;;;;7.60;99.90;;;;;;5078585;28;19912;-77
2021/01/30 11:17:39;;;;;;;;;;;7.60;99.90;;;;;;5071154;28;19912;-76
2021/01/30 11:20:05;;;;;;;;;;;7.60;99.90;;;;;;5071527;28;19940;-76
2021/01/30 11:22:30;;;;;;;;;;;7.70;99.90;;;;;;5070365;28;20003;-77
2021/01/30 11:25:05;;;;;;;;;;;7.70;99.90;;;;;;5078247;28;20383;-77
2021/01/30 11:27:33;;;;;;;;;;;7.60;99.90;;;;;;5088074;28;19934;-77
2021/01/30 11:30:20;;;;;;;;;;;7.60;99.90;;;;;;5086932;28;20261;-76
2021/01/30 11:32:50;;;;;;;;;;;7.70;99.90;;;;;;5089315;28;19912;-76
2021/01/30 11:35:19;;;;;;;;;;;7.70;99.90;;;;;;5086369;28;19908;-76
2021/01/30 11:37:44;;;;;;;;;;;7.80;99.90;;;;;;5090165;28;19908;-76
2021/01/30 11:40:10;;;;;;;;;;;7.80;99.90;;;;;;5090753;28;20053;-77
2021/01/30 11:42:36;;;;;;;;;;;7.90;99.90;;;;;;5081392;28;20182;-76
2021/01/30 11:45:03;;;;;;;;;;;8.00;99.90;;;;;;5075254;28;20003;-76
2021/01/30 11:47:28;;;;;;;;;;;7.90;99.90;;;;;;5070974;28;19913;-76
2021/01/30 11:49:54;;;;;;;;;;;7.90;99.90;;;;;;5071309;28;20277;-76
2021/01/30 11:52:22;;;;;;;;;;;7.90;99.90;;;;;;5069942;28;19919;-76
2021/01/30 11:54:48;;;;;;;;;;;8.00;99.90;;;;;;5071773;28;20003;-77
2021/01/30 11:57:14;;;;;;;;;;;8.00;99.90;;;;;;5070659;28;19952;-76
2021/01/30 11:59:39;;;;;;;;;;;8.00;99.90;;;;;;5071064;28;19978;-77
2021/01/30 12:02:07;;;;;;;;;;;8.10;99.90;;;;;;5071068;28;19909;-77
2021/01/30 12:04:33;;;;;;;;;;;8.10;99.90;;;;;;5071278;28;20163;-76
2021/01/30 12:06:58;;;;;;;;;;;8.00;99.90;;;;;;5069456;28;19913;-76
2021/01/30 12:09:24;;;;;;;;;;;7.90;99.90;;;;;;5069317;28;19958;-76
2021/01/30 12:11:49;;;;;;;;;;;7.80;99.90;;;;;;5074007;28;19920;-76
2021/01/30 12:14:15;;;;;;;;;;;7.80;99.90;;;;;;5079682;28;19912;-76
2021/01/30 12:16:40;;;;;;;;;;;7.70;99.90;;;;;;5074362;28;19912;-77
2021/01/30 12:19:05;;;;;;;;;;;7.60;99.90;;;;;;5074921;28;19908;-75
2021/01/30 12:21:31;;;;;;;;;;;7.60;99.90;;;;;;5080136;28;19915;-76
2021/01/30 12:23:57;;;;;;;;;;;7.60;99.90;;;;;;5074511;28;20354;-76
2021/01/30 12:26:23;;;;;;;;;;;7.60;99.90;;;;;;5077701;28;20361;-76
2021/01/30 12:28:49;;;;;;;;;;;7.60;99.90;;;;;;5081124;28;19962;-76
2021/01/30 12:31:15;;;;;;;;;;;7.50;99.90;;;;;;5084179;28;19917;-76
2021/01/30 12:33:40;;;;;;;;;;;7.40;99.90;;;;;;5084833;28;19999;-76
2021/01/30 12:36:07;;;;;;;;;;;7.20;99.90;;;;;;5072612;28;20008;-76
2021/01/30 12:38:33;;;;;;;;;;;7.10;99.90;;;;;;5088955;28;19908;-76
2021/01/30 12:40:59;;;;;;;;;;;7.00;99.90;;;;;;5074007;28;19913;-76
2021/01/30 12:43:24;;;;;;;;;;;7.00;99.90;;;;;;5085741;28;20255;-76
2021/01/30 12:45:50;;;;;;;;;;;6.90;99.90;;;;;;5073070;28;20270;-76
2021/01/30 12:48:16;;;;;;;;;;;6.90;99.90;;;;;;5085672;28;19908;-76
2021/01/30 12:50:41;;;;;;;;;;;6.90;99.90;;;;;;5085784;28;20284;-76
2021/01/30 12:53:10;;;;;;;;;;;6.90;99.90;;;;;;5088394;28;19913;-76
2021/01/30 12:55:36;;;;;;;;;;;6.90;99.90;;;;;;5082598;28;20327;-76
2021/01/30 12:58:11;;;;;;;;;;;6.80;99.90;;;;;;5078703;28;19916;-76
2021/01/30 13:00:37;;;;;;;;;;;6.80;99.90;;;;;;5074228;28;19915;-76
2021/01/30 13:03:03;;;;;;;;;;;6.70;99.90;;;;;;5073663;28;20285;-76
2021/01/30 13:05:28;;;;;;;;;;;6.70;99.90;;;;;;5086549;28;19920;-76
2021/01/30 13:07:54;;;;;;;;;;;6.70;99.90;;;;;;5079780;28;19940;-76
2021/01/30 13:10:20;;;;;;;;;;;6.70;99.90;;;;;;5079022;28;19923;-75
2021/01/30 13:12:45;;;;;;;;;;;6.70;99.90;;;;;;5077481;28;20436;-75
2021/01/30 13:15:12;;;;;;;;;;;6.60;99.90;;;;;;5087280;28;19915;-76
2021/01/30 13:17:37;;;;;;;;;;;6.60;99.90;;;;;;5073542;28;19916;-76
2021/01/30 13:20:03;;;;;;;;;;;6.60;99.90;;;;;;5073843;28;19908;-76
2021/01/30 13:22:33;;;;;;;;;;;6.60;99.90;;;;;;5076117;28;19912;-76
2021/01/30 13:24:59;;;;;;;;;;;6.70;99.90;;;;;;5083701;28;19966;-76
2021/01/30 13:27:24;;;;;;;;;;;6.60;99.90;;;;;;5072012;28;20282;-76
2021/01/30 13:29:50;;;;;;;;;;;6.60;99.90;;;;;;5080714;28;19912;-76
2021/01/30 13:32:16;;;;;;;;;;;6.50;99.90;;;;;;5087245;28;20389;-76
2021/01/30 13:34:41;;;;;;;;;;;6.40;99.90;;;;;;5074095;28;19908;-75
2021/01/30 13:37:07;;;;;;;;;;;6.40;99.90;;;;;;5078518;28;20529;-75
2021/01/30 13:39:33;;;;;;;;;;;6.40;99.90;;;;;;5090565;28;19993;-75
2021/01/30 13:41:58;;;;;;;;;;;6.40;99.90;;;;;;5088430;28;19912;-76
2021/01/30 13:44:25;;;;;;;;;;;6.50;99.90;;;;;;5077615;28;19908;-76
2021/01/30 13:46:50;;;;;;;;;;;6.50;99.90;;;;;;5075536;28;19913;-76
2021/01/30 13:49:16;;;;;;;;;;;6.50;99.90;;;;;;5073087;28;20388;-75
2021/01/30 13:51:41;;;;;;;;;;;6.40;99.90;;;;;;5072914;28;20000;-75
2021/01/30 13:54:07;;;;;;;;;;;6.50;99.90;;;;;;5073110;28;19909;-76
2021/01/30 13:56:32;;;;;;;;;;;6.50;99.90;;;;;;5072609;28;19999;-76
2021/01/30 13:58:58;;;;;;;;;;;6.60;99.90;;;;;;5072909;28;19916;-76
2021/01/30 14:01:23;;;;;;;;;;;6.50;99.90;;;;;;5084520;28;19923;-76
2021/01/30 14:03:49;;;;;;;;;;;6.50;99.90;;;;;;5076034;28;19916;-76
2021/01/30 14:06:14;;;;;;;;;;;6.60;99.90;;;;;;5072511;28;19961;-76
2021/01/30 14:08:40;;;;;;;;;;;6.60;99.90;;;;;;5076452;28;19920;-76
2021/01/30 14:11:06;;;;;;;;;;;6.60;99.90;;;;;;5087378;28;19931;-76
2021/01/30 14:13:31;;;;;;;;;;;6.60;99.90;;;;;;5074982;28;19916;-76
2021/01/30 14:15:57;;;;;;;;;;;6.50;99.90;;;;;;5085987;28;19912;-76
2021/01/30 14:18:23;;;;;;;;;;;6.60;99.90;;;;;;5073737;28;20317;-75
2021/01/30 14:20:48;;;;;;;;;;;6.60;99.90;;;;;;5076393;28;19913;-76
2021/01/30 14:23:14;;;;;;;;;;;6.60;99.90;;;;;;5078793;28;20403;-76
2021/01/30 14:25:39;;;;;;;;;;;6.50;99.90;;;;;;5076187;28;19934;-76
2021/01/30 14:28:05;;;;;;;;;;;6.40;99.90;;;;;;5089459;28;20387;-76
2021/01/30 14:30:31;;;;;;;;;;;6.50;99.90;;;;;;5079688;28;20292;-77
2021/01/30 14:32:57;;;;;;;;;;;6.40;99.90;;;;;;5081059;28;19973;-76
2021/01/30 14:35:23;;;;;;;;;;;6.40;99.90;;;;;;5074088;28;20381;-77
2021/01/30 14:37:49;;;;;;;;;;;6.30;99.90;;;;;;5085822;28;20032;-76
2021/01/30 14:40:21;;;;;;;;;;;6.20;99.90;;;;;;5082788;28;19923;-76
2021/01/30 14:42:47;;;;;;;;;;;6.20;99.90;;;;;;5080483;28;19992;-76